Time;durP1;ratioP1;P1;durP2;ratioP2;P2;SDS_P1;SDS_P2;PMS_P1;PMS_P2;Temp;Humidity;BMP_temperature;BMP_pressure;BME280_temperature;BME280_humidity;BME280_pressure;Samples;Min_cycle;Max_cycle;Signal;HPM_P1;HPM_P2
2023/09/25 00:00:18;;;;;;;4.13;1.83;;;;;;;;;;5047226;28;20448;-57
2023/09/25 00:02:44;;;;;;;3.67;1.50;;;;;;;;;;5047486;28;20984;-58
2023/09/25 00:05:09;;;;;;;4.20;1.90;;;;;;;;;;5046149;28;20409;-57
2023/09/25 00:07:34;;;;;;;4.20;2.00;;;;;;;;;;5047145;28;20456;-57
2023/09/25 00:09:59;;;;;;;4.63;2.23;;;;;;;;;;5048834;28;20393;-58
2023/09/25 00:12:25;;;;;;;4.40;2.00;;;;;;;;;;5049005;28;20385;-57
2023/09/25 00:14:50;;;;;;;4.32;1.90;;;;;;;;;;5046674;28;20942;-58
2023/09/25 00:17:15;;;;;;;4.13;1.80;;;;;;;;;;5045041;28;20416;-58
2023/09/25 00:19:42;;;;;;;3.63;1.90;;;;;;;;;;5047383;28;20409;-58
2023/09/25 00:22:07;;;;;;;3.72;2.10;;;;;;;;;;5046604;28;20484;-58
2023/09/25 00:24:32;;;;;;;4.50;2.10;;;;;;;;;;5045254;28;20409;-58
2023/09/25 00:26:57;;;;;;;3.80;2.00;;;;;;;;;;5047582;28;20809;-57
2023/09/25 00:29:23;;;;;;;4.60;2.10;;;;;;;;;;5047045;28;20441;-57
2023/09/25 00:31:48;;;;;;;5.50;2.07;;;;;;;;;;5044166;28;20397;-57
2023/09/25 00:34:14;;;;;;;4.75;1.90;;;;;;;;;;5046978;28;20420;-57
2023/09/25 00:36:39;;;;;;;4.13;2.00;;;;;;;;;;5047624;28;20476;-58
2023/09/25 00:39:06;;;;;;;3.90;1.87;;;;;;;;;;5044909;28;20440;-58
2023/09/25 00:41:32;;;;;;;4.65;2.28;;;;;;;;;;5046107;28;20973;-58
2023/09/25 00:43:57;;;;;;;7.03;2.40;;;;;;;;;;5047066;28;20409;-58
2023/09/25 00:46:22;;;;;;;4.77;2.07;;;;;;;;;;5045625;28;20389;-57
2023/09/25 00:48:48;;;;;;;3.93;2.10;;;;;;;;;;5045278;28;20394;-57
2023/09/25 00:51:13;;;;;;;5.30;1.80;;;;;;;;;;5045712;28;20489;-58
2023/09/25 00:53:41;;;;;;;4.80;2.13;;;;;;;;;;5046580;28;20405;-58
2023/09/25 00:56:06;;;;;;;5.10;2.13;;;;;;;;;;5044717;28;20440;-58
2023/09/25 00:58:32;;;;;;;4.53;2.20;;;;;;;;;;5045779;28;20425;-58
2023/09/25 01:00:57;;;;;;;4.70;2.20;;;;;;;;;;5046958;28;20402;-58
2023/09/25 01:03:22;;;;;;;5.10;2.43;;;;;;;;;;5045971;28;20381;-57
2023/09/25 01:05:48;;;;;;;4.20;2.00;;;;;;;;;;5045083;28;20488;-57
2023/09/25 01:08:13;;;;;;;4.50;2.00;;;;;;;;;;5046606;28;20680;-57
2023/09/25 01:10:40;;;;;;;4.45;2.10;;;;;;;;;;5047063;28;20896;-58
2023/09/25 01:13:05;;;;;;;3.83;1.88;;;;;;;;;;5043042;28;20821;-58
2023/09/25 01:15:31;;;;;;;4.60;2.30;;;;;;;;;;5046940;28;20424;-57
2023/09/25 01:17:57;;;;;;;4.37;1.90;;;;;;;;;;5046899;28;20400;-57
2023/09/25 01:20:23;;;;;;;5.00;1.90;;;;;;;;;;5029807;28;20398;-57
2023/09/25 01:22:49;;;;;;;3.92;1.90;;;;;;;;;;5020926;28;20407;-58
2023/09/25 01:25:15;;;;;;;3.97;1.70;;;;;;;;;;5021335;28;21018;-57
2023/09/25 01:27:42;;;;;;;4.03;1.70;;;;;;;;;;5024936;28;20407;-57
2023/09/25 01:30:09;;;;;;;4.63;1.90;;;;;;;;;;5030903;28;20455;-58
2023/09/25 01:32:37;;;;;;;3.25;1.45;;;;;;;;;;5028913;28;20401;-57
2023/09/25 01:35:03;;;;;;;3.65;1.75;;;;;;;;;;5027657;28;20413;-57
2023/09/25 01:37:28;;;;;;;5.23;1.73;;;;;;;;;;5030474;28;20397;-58
2023/09/25 01:39:53;;;;;;;3.45;1.70;;;;;;;;;;5028823;28;20488;-58
2023/09/25 01:42:18;;;;;;;10.25;2.25;;;;;;;;;;5021738;28;20572;-58
2023/09/25 01:44:44;;;;;;;4.70;1.70;;;;;;;;;;5022511;28;20834;-57
2023/09/25 01:47:09;;;;;;;4.47;1.70;;;;;;;;;;5020105;28;20500;-57
2023/09/25 01:49:34;;;;;;;5.40;1.83;;;;;;;;;;5024934;28;20895;-57
2023/09/25 01:52:07;;;;;;;4.60;1.50;;;;;;;;;;5027689;28;20418;-58
2023/09/25 01:54:32;;;;;;;5.03;1.90;;;;;;;;;;5030423;28;20409;-57
2023/09/25 01:56:57;;;;;;;5.90;1.90;;;;;;;;;;5026004;28;20405;-57
2023/09/25 01:59:22;;;;;;;4.17;2.00;;;;;;;;;;5027546;28;20485;-58
2023/09/25 02:01:48;;;;;;;4.00;1.90;;;;;;;;;;5029158;28;20932;-57
2023/09/25 02:04:13;;;;;;;3.60;1.67;;;;;;;;;;5024202;28;20801;-57
2023/09/25 02:06:38;;;;;;;3.53;2.00;;;;;;;;;;5019672;28;20687;-57
2023/09/25 02:09:03;;;;;;;3.15;1.70;;;;;;;;;;5019507;28;20411;-57
2023/09/25 02:11:29;;;;;;;3.93;1.70;;;;;;;;;;5025530;28;20416;-57
2023/09/25 02:13:54;;;;;;;4.47;1.90;;;;;;;;;;5028262;28;20854;-58
2023/09/25 02:16:19;;;;;;;4.37;1.60;;;;;;;;;;5027319;28;20910;-57
2023/09/25 02:18:44;;;;;;;3.03;1.70;;;;;;;;;;5028452;28;20397;-58
2023/09/25 02:21:10;;;;;;;3.50;1.80;;;;;;;;;;5028605;28;20425;-57
2023/09/25 02:23:35;;;;;;;3.70;1.60;;;;;;;;;;5048077;28;20409;-57
2023/09/25 02:26:01;;;;;;;4.43;1.67;;;;;;;;;;5048000;28;20992;-58
2023/09/25 02:28:26;;;;;;;4.60;1.60;;;;;;;;;;5048530;28;20405;-57
2023/09/25 02:30:51;;;;;;;4.73;1.87;;;;;;;;;;5049062;28;20493;-58
2023/09/25 02:33:17;;;;;;;3.90;1.60;;;;;;;;;;5048803;28;20803;-57
2023/09/25 02:35:42;;;;;;;4.43;1.80;;;;;;;;;;5047750;28;20471;-58
2023/09/25 02:38:07;;;;;;;3.47;1.87;;;;;;;;;;5048481;28;20406;-58
2023/09/25 02:40:33;;;;;;;4.05;1.83;;;;;;;;;;5048817;28;20398;-57
2023/09/25 02:42:58;;;;;;;3.30;1.60;;;;;;;;;;5047446;28;20417;-57
2023/09/25 02:45:24;;;;;;;4.77;1.90;;;;;;;;;;5047870;28;20979;-57
2023/09/25 02:47:49;;;;;;;4.23;1.57;;;;;;;;;;5049443;28;20446;-58
2023/09/25 02:50:14;;;;;;;3.77;1.60;;;;;;;;;;5048082;28;20405;-58
2023/09/25 02:52:42;;;;;;;3.28;1.77;;;;;;;;;;5047474;28;20416;-57
2023/09/25 02:55:08;;;;;;;11.50;1.70;;;;;;;;;;5049142;28;20467;-58
2023/09/25 02:57:33;;;;;;;3.03;1.63;;;;;;;;;;5049481;28;20393;-57
2023/09/25 02:59:58;;;;;;;3.80;1.50;;;;;;;;;;5046064;28;20417;-57
2023/09/25 03:02:25;;;;;;;4.20;1.70;;;;;;;;;;5048763;28;20489;-58
2023/09/25 03:04:51;;;;;;;3.35;1.70;;;;;;;;;;5049341;28;20401;-58
2023/09/25 03:07:16;;;;;;;3.90;1.70;;;;;;;;;;5046138;28;20424;-57
2023/09/25 03:09:42;;;;;;;4.63;1.70;;;;;;;;;;5048227;28;20413;-57
2023/09/25 03:12:07;;;;;;;4.13;1.70;;;;;;;;;;5047695;28;20393;-57
2023/09/25 03:14:32;;;;;;;5.43;1.77;;;;;;;;;;5048249;28;20397;-58
2023/09/25 03:16:58;;;;;;;3.63;1.60;;;;;;;;;;5047214;28;20481;-58
2023/09/25 03:19:23;;;;;;;3.87;1.57;;;;;;;;;;5047877;28;20398;-57
2023/09/25 03:21:48;;;;;;;5.00;1.97;;;;;;;;;;5048822;28;20413;-57
2023/09/25 03:24:14;;;;;;;3.70;1.50;;;;;;;;;;5045964;28;20687;-57
2023/09/25 03:26:39;;;;;;;3.58;1.60;;;;;;;;;;5048017;28;20760;-58
2023/09/25 03:29:06;;;;;;;5.17;1.83;;;;;;;;;;5048099;28;20821;-57
2023/09/25 03:31:31;;;;;;;4.43;1.63;;;;;;;;;;5047138;28;20471;-57
2023/09/25 03:33:56;;;;;;;4.68;1.70;;;;;;;;;;5046819;28;20746;-57
2023/09/25 03:36:22;;;;;;;4.33;2.00;;;;;;;;;;5048295;28;20428;-57
2023/09/25 03:38:47;;;;;;;4.13;2.10;;;;;;;;;;5051643;28;20883;-58
2023/09/25 03:41:13;;;;;;;3.80;1.90;;;;;;;;;;5047896;28;20412;-58
2023/09/25 03:43:38;;;;;;;5.00;1.70;;;;;;;;;;5048779;28;20495;-58
2023/09/25 03:46:03;;;;;;;4.70;1.75;;;;;;;;;;5045853;28;20425;-57
2023/09/25 03:48:29;;;;;;;5.30;1.80;;;;;;;;;;5047568;28;20461;-57
2023/09/25 03:50:54;;;;;;;4.03;2.00;;;;;;;;;;5036323;28;20863;-57
2023/09/25 03:53:19;;;;;;;4.47;1.93;;;;;;;;;;5026656;28;20383;-57
2023/09/25 03:55:44;;;;;;;4.17;1.83;;;;;;;;;;5022237;28;20427;-58
2023/09/25 03:58:10;;;;;;;4.43;1.73;;;;;;;;;;5017734;28;20407;-57
2023/09/25 04:00:36;;;;;;;4.90;2.00;;;;;;;;;;5018570;28;20894;-58
2023/09/25 04:03:01;;;;;;;2.83;1.60;;;;;;;;;;5021140;28;20414;-58
2023/09/25 04:05:27;;;;;;;4.90;1.88;;;;;;;;;;5026149;28;20516;-57
2023/09/25 04:07:52;;;;;;;3.10;1.60;;;;;;;;;;5026402;28;20415;-58
2023/09/25 04:10:18;;;;;;;4.10;1.97;;;;;;;;;;5025808;28;20429;-58
2023/09/25 04:12:44;;;;;;;3.97;1.75;;;;;;;;;;5024245;28;20443;-57
2023/09/25 04:15:16;;;;;;;5.03;1.80;;;;;;;;;;5025616;28;20969;-58
2023/09/25 04:17:41;;;;;;;4.15;1.65;;;;;;;;;;5026412;28;20395;-57
2023/09/25 04:20:17;;;;;;;4.88;1.88;;;;;;;;;;5019189;28;20412;-58
2023/09/25 04:22:43;;;;;;;3.50;1.60;;;;;;;;;;5016560;28;20406;-58
2023/09/25 04:25:15;;;;;;;4.47;1.60;;;;;;;;;;5019117;28;20407;-58
2023/09/25 04:27:41;;;;;;;4.70;1.80;;;;;;;;;;5026821;28;20997;-58
2023/09/25 04:30:08;;;;;;;4.07;1.93;;;;;;;;;;5024808;28;20400;-58
2023/09/25 04:32:33;;;;;;;3.95;1.80;;;;;;;;;;5024661;28;20478;-57
2023/09/25 04:34:59;;;;;;;4.57;1.80;;;;;;;;;;5027262;28;20913;-57
2023/09/25 04:37:25;;;;;;;3.80;1.63;;;;;;;;;;5023443;28;20411;-57
2023/09/25 04:39:50;;;;;;;4.27;1.77;;;;;;;;;;5025379;28;20413;-58
2023/09/25 04:42:15;;;;;;;4.47;1.80;;;;;;;;;;5017684;28;20407;-57
2023/09/25 04:44:40;;;;;;;3.97;2.00;;;;;;;;;;5019123;28;20449;-58
2023/09/25 04:47:05;;;;;;;5.10;1.83;;;;;;;;;;5016938;28;20421;-58
2023/09/25 04:49:31;;;;;;;4.73;1.60;;;;;;;;;;5023730;28;20499;-58
2023/09/25 04:51:57;;;;;;;3.10;1.60;;;;;;;;;;5025921;28;20498;-57
2023/09/25 04:54:22;;;;;;;4.30;1.60;;;;;;;;;;5024597;28;20479;-57
2023/09/25 04:56:47;;;;;;;4.70;1.60;;;;;;;;;;5024865;28;20403;-57
2023/09/25 04:59:13;;;;;;;2.90;1.60;;;;;;;;;;5024703;28;20773;-57
2023/09/25 05:01:39;;;;;;;3.23;1.40;;;;;;;;;;5026684;28;20471;-57
2023/09/25 05:04:04;;;;;;;5.28;1.60;;;;;;;;;;5019533;28;20406;-57
2023/09/25 05:06:29;;;;;;;3.37;1.53;;;;;;;;;;5016972;28;20411;-57
2023/09/25 05:08:55;;;;;;;4.30;1.60;;;;;;;;;;5018183;28;20675;-57
2023/09/25 05:11:21;;;;;;;3.07;1.43;;;;;;;;;;5020846;28;20407;-57
2023/09/25 05:13:46;;;;;;;3.88;1.52;;;;;;;;;;5023578;28;20395;-57
2023/09/25 05:16:11;;;;;;;6.90;1.80;;;;;;;;;;5024716;28;20971;-57
2023/09/25 05:18:37;;;;;;;3.00;1.40;;;;;;;;;;5024532;28;20405;-58
2023/09/25 05:21:02;;;;;;;5.27;1.43;;;;;;;;;;5022928;28;20551;-58
2023/09/25 05:23:27;;;;;;;4.05;1.75;;;;;;;;;;5024783;28;20418;-57
2023/09/25 05:25:56;;;;;;;4.88;1.50;;;;;;;;;;5022420;28;21357;-57
2023/09/25 05:28:22;;;;;;;5.30;1.60;;;;;;;;;;5015183;28;20409;-57
2023/09/25 05:30:48;;;;;;;3.30;1.30;;;;;;;;;;5017915;28;20411;-57
2023/09/25 05:33:14;;;;;;;3.83;1.40;;;;;;;;;;5019717;28;20692;-57
2023/09/25 05:35:39;;;;;;;2.53;1.20;;;;;;;;;;5023663;28;20433;-57
2023/09/25 05:38:04;;;;;;;3.83;1.40;;;;;;;;;;5023165;28;20491;-57
2023/09/25 05:40:30;;;;;;;3.97;1.40;;;;;;;;;;5025152;28;20435;-57
2023/09/25 05:42:55;;;;;;;2.72;1.23;;;;;;;;;;5025734;28;20410;-58
2023/09/25 05:45:21;;;;;;;3.37;1.40;;;;;;;;;;5024581;28;20408;-58
2023/09/25 05:47:46;;;;;;;2.88;1.50;;;;;;;;;;5023841;28;20395;-57
2023/09/25 05:50:12;;;;;;;2.87;1.40;;;;;;;;;;5016588;28;20417;-57
2023/09/25 05:52:37;;;;;;;3.50;1.47;;;;;;;;;;5016061;28;20913;-57
2023/09/25 05:55:04;;;;;;;4.03;1.40;;;;;;;;;;5015234;28;20952;-58
2023/09/25 05:57:29;;;;;;;3.60;1.40;;;;;;;;;;5035360;28;20456;-58
2023/09/25 05:59:55;;;;;;;4.60;1.70;;;;;;;;;;5022691;28;20413;-58
2023/09/25 06:02:20;;;;;;;3.90;1.50;;;;;;;;;;5022620;28;20581;-58
2023/09/25 06:04:46;;;;;;;4.88;1.50;;;;;;;;;;5025749;28;20399;-57
2023/09/25 06:07:11;;;;;;;3.37;1.53;;;;;;;;;;5023711;28;20421;-58
2023/09/25 06:09:37;;;;;;;4.33;1.40;;;;;;;;;;5023518;28;20456;-57
2023/09/25 06:12:03;;;;;;;4.68;1.58;;;;;;;;;;5020965;28;20414;-57
2023/09/25 06:14:29;;;;;;;3.60;1.33;;;;;;;;;;5017368;28;20500;-57
2023/09/25 06:16:56;;;;;;;4.20;1.57;;;;;;;;;;5019393;28;20485;-57
2023/09/25 06:19:22;;;;;;;2.85;1.40;;;;;;;;;;5025401;28;20398;-57
2023/09/25 06:21:47;;;;;;;2.10;1.20;;;;;;;;;;5029475;28;20457;-58
2023/09/25 06:24:13;;;;;;;3.65;1.45;;;;;;;;;;5026039;28;20421;-58
2023/09/25 06:26:39;;;;;;;2.97;1.42;;;;;;;;;;5026276;28;20543;-58
2023/09/25 06:29:05;;;;;;;5.22;1.90;;;;;;;;;;5029520;28;20406;-57
2023/09/25 06:31:30;;;;;;;3.45;1.50;;;;;;;;;;5027352;28;20450;-57
2023/09/25 06:33:56;;;;;;;3.00;1.50;;;;;;;;;;5039186;28;20423;-57
2023/09/25 06:36:21;;;;;;;2.67;1.50;;;;;;;;;;5040252;28;20447;-57
2023/09/25 06:38:47;;;;;;;3.30;1.43;;;;;;;;;;5042729;28;20773;-58
2023/09/25 06:41:13;;;;;;;4.05;1.48;;;;;;;;;;5049096;28;20409;-58
2023/09/25 06:43:38;;;;;;;3.97;1.30;;;;;;;;;;5048373;28;20390;-58
2023/09/25 06:46:03;;;;;;;3.75;1.52;;;;;;;;;;5046991;28;20421;-58
2023/09/25 06:48:29;;;;;;;3.03;1.50;;;;;;;;;;5048830;28;20400;-57
2023/09/25 06:50:54;;;;;;;3.23;1.37;;;;;;;;;;5050205;28;20393;-57
2023/09/25 06:53:19;;;;;;;3.13;1.43;;;;;;;;;;5051405;28;20384;-57
2023/09/25 06:55:44;;;;;;;3.77;1.70;;;;;;;;;;5052446;28;20398;-58
2023/09/25 06:58:10;;;;;;;3.97;1.40;;;;;;;;;;5050875;28;20416;-58
2023/09/25 07:00:35;;;;;;;3.07;1.20;;;;;;;;;;5052023;28;20410;-57
2023/09/25 07:03:01;;;;;;;4.53;1.58;;;;;;;;;;5050608;28;20401;-58
2023/09/25 07:05:28;;;;;;;3.17;1.38;;;;;;;;;;5051582;28;20472;-58
2023/09/25 07:07:53;;;;;;;4.60;1.63;;;;;;;;;;5051824;28;20409;-58
2023/09/25 07:10:19;;;;;;;2.60;1.50;;;;;;;;;;5051439;28;20389;-58
2023/09/25 07:12:44;;;;;;;3.73;1.60;;;;;;;;;;5050765;28;20460;-58
2023/09/25 07:15:09;;;;;;;4.70;1.60;;;;;;;;;;5051044;28;20500;-58
2023/09/25 07:17:35;;;;;;;4.50;1.80;;;;;;;;;;5051224;28;20480;-58
2023/09/25 07:20:00;;;;;;;3.43;1.50;;;;;;;;;;5050191;28;20412;-58
2023/09/25 07:22:27;;;;;;;3.30;1.73;;;;;;;;;;5050926;28;20401;-58
2023/09/25 07:24:53;;;;;;;3.92;1.88;;;;;;;;;;5051213;28;20405;-58
2023/09/25 07:27:18;;;;;;;7.50;2.00;;;;;;;;;;5049980;28;20417;-57
2023/09/25 07:29:44;;;;;;;4.30;2.00;;;;;;;;;;5051674;28;20892;-58
2023/09/25 07:32:09;;;;;;;5.37;1.70;;;;;;;;;;5050719;28;20398;-57
2023/09/25 07:34:35;;;;;;;5.45;1.73;;;;;;;;;;5050873;28;20928;-57
2023/09/25 07:37:04;;;;;;;5.17;1.80;;;;;;;;;;5050888;28;20406;-57
2023/09/25 07:39:30;;;;;;;6.18;2.00;;;;;;;;;;5049930;28;20385;-58
2023/09/25 07:41:55;;;;;;;4.60;1.87;;;;;;;;;;5051275;28;20393;-57
2023/09/25 07:44:25;;;;;;;4.67;2.03;;;;;;;;;;5050919;28;20386;-58
2023/09/25 07:46:51;;;;;;;5.25;2.47;;;;;;;;;;5050310;28;20482;-58
2023/09/25 07:49:18;;;;;;;4.20;2.00;;;;;;;;;;5050945;28;20484;-58
2023/09/25 07:51:43;;;;;;;4.13;1.75;;;;;;;;;;5050961;28;20408;-58
2023/09/25 07:54:08;;;;;;;5.13;1.92;;;;;;;;;;5049467;28;20401;-58
2023/09/25 07:56:34;;;;;;;4.93;1.80;;;;;;;;;;5050585;28;20823;-57
2023/09/25 07:59:00;;;;;;;5.23;1.87;;;;;;;;;;5051049;28;20408;-58
2023/09/25 08:01:29;;;;;;;4.82;1.77;;;;;;;;;;5049880;28;20402;-58
2023/09/25 08:03:55;;;;;;;5.10;1.85;;;;;;;;;;5050992;28;20416;-58
2023/09/25 08:06:24;;;;;;;3.40;1.60;;;;;;;;;;5050473;28;20469;-58
2023/09/25 08:08:50;;;;;;;3.92;1.75;;;;;;;;;;5049647;28;20421;-58
2023/09/25 08:11:15;;;;;;;4.38;1.50;;;;;;;;;;5050385;28;20432;-58
2023/09/25 08:13:41;;;;;;;4.05;1.30;;;;;;;;;;5050801;28;20417;-58
2023/09/25 08:16:06;;;;;;;3.88;1.60;;;;;;;;;;5049657;28;20962;-58
2023/09/25 08:18:31;;;;;;;4.93;1.40;;;;;;;;;;5050840;28;20430;-57
2023/09/25 08:20:56;;;;;;;2.80;1.50;;;;;;;;;;5050766;28;20405;-58
2023/09/25 08:23:22;;;;;;;4.20;1.50;;;;;;;;;;5049232;28;20468;-58
2023/09/25 08:25:47;;;;;;;3.03;1.50;;;;;;;;;;5049368;28;20424;-58
2023/09/25 08:28:14;;;;;;;3.33;1.27;;;;;;;;;;5045125;28;20414;-58
2023/09/25 08:30:39;;;;;;;3.90;1.45;;;;;;;;;;5045726;28;20471;-58
2023/09/25 08:33:05;;;;;;;2.92;1.30;;;;;;;;;;5047425;28;20405;-58
2023/09/25 08:35:30;;;;;;;3.60;1.57;;;;;;;;;;5046497;28;20405;-57
2023/09/25 08:37:55;;;;;;;3.10;1.37;;;;;;;;;;5044948;28;20393;-58
2023/09/25 08:40:21;;;;;;;3.97;1.40;;;;;;;;;;5046829;28;20392;-58
2023/09/25 08:42:47;;;;;;;3.63;1.53;;;;;;;;;;5046973;28;20792;-58
2023/09/25 08:45:14;;;;;;;3.00;1.40;;;;;;;;;;5044948;28;20401;-58
2023/09/25 08:47:39;;;;;;;4.10;1.33;;;;;;;;;;5046844;28;20523;-58
2023/09/25 08:50:05;;;;;;;3.60;1.17;;;;;;;;;;5044984;28;20409;-58
2023/09/25 08:52:31;;;;;;;2.37;1.23;;;;;;;;;;5046188;28;20401;-58
2023/09/25 08:54:57;;;;;;;2.70;1.20;;;;;;;;;;5045906;28;20404;-58
2023/09/25 08:57:23;;;;;;;2.87;1.20;;;;;;;;;;5046112;28;20409;-58
2023/09/25 08:59:49;;;;;;;3.63;1.53;;;;;;;;;;5046846;28;20401;-58
2023/09/25 09:02:14;;;;;;;2.95;1.33;;;;;;;;;;5044260;28;20475;-58
2023/09/25 09:04:39;;;;;;;3.92;1.30;;;;;;;;;;5046284;28;20417;-58
2023/09/25 09:07:05;;;;;;;3.40;1.50;;;;;;;;;;5046606;28;20769;-58
2023/09/25 09:09:31;;;;;;;3.73;1.40;;;;;;;;;;5045730;28;20756;-58
2023/09/25 09:11:57;;;;;;;3.10;1.27;;;;;;;;;;5044370;28;20467;-58
2023/09/25 09:14:32;;;;;;;4.60;1.50;;;;;;;;;;5045088;28;20396;-58
2023/09/25 09:16:58;;;;;;;3.65;1.40;;;;;;;;;;5046865;28;20480;-58
2023/09/25 09:19:23;;;;;;;3.23;1.20;;;;;;;;;;5043907;28;20514;-58
2023/09/25 09:21:50;;;;;;;3.30;1.43;;;;;;;;;;5046905;28;20397;-58
2023/09/25 09:24:22;;;;;;;2.65;1.40;;;;;;;;;;5045923;28;20463;-59
2023/09/25 09:26:47;;;;;;;3.30;1.30;;;;;;;;;;5044071;28;20429;-58
2023/09/25 09:29:12;;;;;;;2.87;1.10;;;;;;;;;;5045871;28;20942;-58
2023/09/25 09:31:37;;;;;;;4.20;1.30;;;;;;;;;;5046952;28;20433;-58
2023/09/25 09:34:03;;;;;;;3.43;1.40;;;;;;;;;;5045278;28;20728;-59
2023/09/25 09:36:29;;;;;;;2.40;1.27;;;;;;;;;;5045040;28;20496;-58
2023/09/25 09:38:54;;;;;;;3.43;1.43;;;;;;;;;;5046508;28;20910;-58
2023/09/25 09:41:19;;;;;;;2.63;1.27;;;;;;;;;;5044863;28;20409;-58
2023/09/25 09:43:45;;;;;;;2.80;1.47;;;;;;;;;;5044038;28;20401;-58
2023/09/25 09:46:11;;;;;;;4.40;1.50;;;;;;;;;;5044283;28;20519;-58
2023/09/25 09:48:36;;;;;;;2.95;1.40;;;;;;;;;;5045756;28;20916;-58
2023/09/25 09:51:02;;;;;;;3.03;1.40;;;;;;;;;;5045832;28;20421;-59
2023/09/25 09:53:28;;;;;;;2.37;1.40;;;;;;;;;;5048629;28;20454;-58
2023/09/25 09:55:54;;;;;;;3.33;1.30;;;;;;;;;;5049941;28;20823;-58
2023/09/25 09:58:19;;;;;;;2.92;1.30;;;;;;;;;;5049561;28;20401;-58
2023/09/25 10:00:44;;;;;;;3.03;1.30;;;;;;;;;;5047555;28;20413;-58
2023/09/25 10:03:10;;;;;;;2.43;1.30;;;;;;;;;;5048815;28;20435;-58
2023/09/25 10:05:45;;;;;;;3.50;1.30;;;;;;;;;;5050520;28;20401;-58
2023/09/25 10:08:10;;;;;;;3.10;1.30;;;;;;;;;;5046875;28;20484;-58
2023/09/25 10:10:36;;;;;;;2.80;1.20;;;;;;;;;;5049424;28;20496;-58
2023/09/25 10:13:01;;;;;;;3.03;1.50;;;;;;;;;;5049445;28;20401;-58
2023/09/25 10:15:26;;;;;;;2.73;1.37;;;;;;;;;;5048992;28;20448;-58
2023/09/25 10:17:52;;;;;;;3.63;1.30;;;;;;;;;;5048579;28;20967;-58
2023/09/25 10:20:28;;;;;;;3.67;1.42;;;;;;;;;;5049733;28;20409;-58
2023/09/25 10:22:53;;;;;;;3.97;1.40;;;;;;;;;;5049161;28;20398;-58
2023/09/25 10:25:18;;;;;;;2.37;1.27;;;;;;;;;;5047190;28;20414;-58
2023/09/25 10:27:44;;;;;;;2.87;1.30;;;;;;;;;;5049336;28;20780;-58
2023/09/25 10:30:13;;;;;;;2.83;1.30;;;;;;;;;;5048902;28;20405;-58
2023/09/25 10:32:40;;;;;;;4.88;1.30;;;;;;;;;;5049090;28;20459;-58
2023/09/25 10:35:24;;;;;;;2.95;1.33;;;;;;;;;;5047114;28;20405;-58
2023/09/25 10:38:08;;;;;;;3.58;1.20;;;;;;;;;;5049403;28;20402;-58
2023/09/25 10:40:35;;;;;;;3.42;1.50;;;;;;;;;;5049356;28;20769;-58
2023/09/25 10:43:00;;;;;;;3.40;1.30;;;;;;;;;;5049738;28;20492;-59
2023/09/25 10:45:26;;;;;;;5.00;1.20;;;;;;;;;;5051755;28;20874;-58
2023/09/25 10:47:51;;;;;;;3.43;1.40;;;;;;;;;;5047471;28;20878;-58
2023/09/25 10:50:16;;;;;;;4.10;1.37;;;;;;;;;;5048107;28;20435;-58
2023/09/25 10:52:42;;;;;;;3.67;1.40;;;;;;;;;;5049399;28;20866;-58
2023/09/25 10:55:07;;;;;;;3.10;1.30;;;;;;;;;;5047690;28;20414;-58
2023/09/25 10:57:32;;;;;;;2.40;1.30;;;;;;;;;;5047642;28;20924;-58
2023/09/25 11:00:08;;;;;;;3.33;1.40;;;;;;;;;;5049129;28;20821;-58
2023/09/25 11:02:33;;;;;;;3.57;1.47;;;;;;;;;;5048841;28;20390;-58
2023/09/25 11:04:59;;;;;;;3.10;1.30;;;;;;;;;;5046033;28;20412;-58
2023/09/25 11:07:26;;;;;;;3.33;1.30;;;;;;;;;;5048791;28;20443;-58
2023/09/25 11:09:52;;;;;;;4.25;1.40;;;;;;;;;;5048058;28;20484;-58
2023/09/25 11:12:17;;;;;;;3.67;1.42;;;;;;;;;;5046655;28;20417;-58
2023/09/25 11:14:43;;;;;;;4.07;1.40;;;;;;;;;;5047995;28;20405;-58
2023/09/25 11:17:08;;;;;;;3.27;1.40;;;;;;;;;;5048407;28;20520;-58
2023/09/25 11:19:34;;;;;;;3.23;1.37;;;;;;;;;;5048079;28;20751;-58
2023/09/25 11:22:01;;;;;;;3.88;1.40;;;;;;;;;;5046744;28;20410;-58
2023/09/25 11:24:27;;;;;;;2.90;1.40;;;;;;;;;;5046564;28;20764;-58
2023/09/25 11:26:53;;;;;;;4.00;1.40;;;;;;;;;;5048828;28;20414;-58
2023/09/25 11:29:18;;;;;;;5.50;1.70;;;;;;;;;;5045934;28;20406;-58
2023/09/25 11:31:43;;;;;;;4.10;1.37;;;;;;;;;;5047368;28;20401;-58
2023/09/25 11:34:09;;;;;;;3.73;1.60;;;;;;;;;;5047555;28;20431;-58
2023/09/25 11:36:34;;;;;;;4.30;1.43;;;;;;;;;;5046174;28;20912;-58
2023/09/25 11:39:00;;;;;;;3.78;1.40;;;;;;;;;;5045670;28;20500;-57
2023/09/25 11:41:25;;;;;;;3.90;1.50;;;;;;;;;;5046518;28;20455;-57
2023/09/25 11:43:51;;;;;;;3.63;1.70;;;;;;;;;;5047923;28;20758;-58
2023/09/25 11:46:16;;;;;;;3.60;1.50;;;;;;;;;;5044435;28;20513;-57
2023/09/25 11:48:41;;;;;;;5.07;2.00;;;;;;;;;;5047978;28;20559;-58
2023/09/25 11:51:07;;;;;;;4.00;1.80;;;;;;;;;;5047574;28;20409;-58
2023/09/25 11:53:32;;;;;;;8.80;2.17;;;;;;;;;;5045752;28;20482;-58
2023/09/25 11:55:57;;;;;;;3.60;1.87;;;;;;;;;;5047402;28;20413;-58
2023/09/25 11:58:22;;;;;;;4.13;1.70;;;;;;;;;;5047759;28;20468;-58
2023/09/25 12:00:48;;;;;;;4.07;1.80;;;;;;;;;;5045955;28;20488;-57
2023/09/25 12:03:13;;;;;;;4.40;1.80;;;;;;;;;;5046226;28;20420;-58
2023/09/25 12:05:38;;;;;;;5.13;1.97;;;;;;;;;;5047830;28;20416;-58
2023/09/25 12:08:05;;;;;;;5.07;2.10;;;;;;;;;;5047260;28;20416;-58
2023/09/25 12:10:39;;;;;;;3.90;1.80;;;;;;;;;;5044806;28;21078;-58
2023/09/25 12:13:04;;;;;;;4.95;1.90;;;;;;;;;;5046445;28;20406;-58
2023/09/25 12:15:30;;;;;;;4.68;1.92;;;;;;;;;;5046844;28;20919;-58
2023/09/25 12:17:55;;;;;;;4.95;1.80;;;;;;;;;;5046663;28;20427;-58
2023/09/25 12:20:22;;;;;;;4.60;1.80;;;;;;;;;;5045919;28;20397;-58
2023/09/25 12:22:52;;;;;;;3.97;1.83;;;;;;;;;;5047166;28;20405;-58
2023/09/25 12:25:17;;;;;;;4.17;1.80;;;;;;;;;;5047550;28;20417;-58
2023/09/25 12:27:43;;;;;;;4.83;1.90;;;;;;;;;;5044750;28;20921;-58
2023/09/25 12:30:10;;;;;;;4.53;1.90;;;;;;;;;;5046689;28;20905;-58
2023/09/25 12:32:36;;;;;;;4.57;1.83;;;;;;;;;;5047477;28;20401;-58
2023/09/25 12:35:01;;;;;;;4.28;1.90;;;;;;;;;;5044579;28;20457;-58
2023/09/25 12:37:28;;;;;;;3.90;2.03;;;;;;;;;;5046831;28;20393;-58
2023/09/25 12:39:54;;;;;;;5.82;2.00;;;;;;;;;;5047400;28;20416;-58
2023/09/25 12:42:19;;;;;;;5.07;1.70;;;;;;;;;;5045734;28;20757;-57
2023/09/25 12:44:44;;;;;;;4.87;2.10;;;;;;;;;;5045322;28;20413;-58
2023/09/25 12:47:10;;;;;;;4.50;2.00;;;;;;;;;;5045743;28;20411;-58
2023/09/25 12:49:35;;;;;;;5.13;1.73;;;;;;;;;;5044945;28;20896;-58
2023/09/25 12:52:01;;;;;;;6.17;2.10;;;;;;;;;;5044153;28;20440;-58
2023/09/25 12:54:26;;;;;;;4.07;2.00;;;;;;;;;;5045157;28;20908;-58
2023/09/25 12:56:51;;;;;;;4.63;1.83;;;;;;;;;;5046270;28;20428;-58
2023/09/25 12:59:17;;;;;;;4.10;1.83;;;;;;;;;;5044763;28;20474;-57
2023/09/25 13:01:42;;;;;;;4.53;2.03;;;;;;;;;;5044030;28;20398;-58
2023/09/25 13:04:07;;;;;;;5.17;1.93;;;;;;;;;;5045846;28;20776;-58
2023/09/25 13:06:32;;;;;;;4.87;2.00;;;;;;;;;;5046385;28;20405;-58
2023/09/25 13:08:59;;;;;;;4.50;2.00;;;;;;;;;;5043649;28;20394;-58
2023/09/25 13:11:24;;;;;;;5.35;2.03;;;;;;;;;;5039747;28;20400;-57
2023/09/25 13:13:49;;;;;;;5.20;1.80;;;;;;;;;;5047089;28;20409;-58
2023/09/25 13:16:15;;;;;;;3.97;1.87;;;;;;;;;;5044208;28;20413;-57
2023/09/25 13:18:40;;;;;;;3.93;1.80;;;;;;;;;;5044886;28;20420;-58
2023/09/25 13:21:06;;;;;;;4.57;1.97;;;;;;;;;;5046552;28;20401;-57
2023/09/25 13:23:31;;;;;;;4.13;1.67;;;;;;;;;;5045296;28;20803;-57
2023/09/25 13:25:56;;;;;;;5.73;2.10;;;;;;;;;;5048768;28;20474;-58
2023/09/25 13:28:21;;;;;;;4.83;1.90;;;;;;;;;;5050765;28;20397;-58
2023/09/25 13:30:47;;;;;;;3.90;2.00;;;;;;;;;;5048915;28;20496;-58
2023/09/25 13:33:12;;;;;;;3.67;1.60;;;;;;;;;;5034341;28;20420;-57
2023/09/25 13:35:37;;;;;;;3.70;1.80;;;;;;;;;;5026775;28;20724;-58
2023/09/25 13:38:02;;;;;;;4.87;1.70;;;;;;;;;;5025025;28;20406;-57
2023/09/25 13:40:29;;;;;;;3.85;1.92;;;;;;;;;;5031362;28;20494;-57
2023/09/25 13:42:54;;;;;;;4.37;1.90;;;;;;;;;;5037543;28;21020;-57
2023/09/25 13:45:19;;;;;;;3.83;1.97;;;;;;;;;;5030714;28;20406;-58
2023/09/25 13:47:45;;;;;;;5.17;2.10;;;;;;;;;;5033787;28;20805;-58
2023/09/25 13:50:12;;;;;;;5.03;1.90;;;;;;;;;;5032280;28;20413;-57
2023/09/25 13:52:37;;;;;;;4.73;1.87;;;;;;;;;;5030496;28;20469;-57
2023/09/25 13:55:03;;;;;;;4.23;1.80;;;;;;;;;;5030033;28;20406;-58
2023/09/25 13:57:28;;;;;;;4.25;1.70;;;;;;;;;;5026551;28;20413;-58
2023/09/25 13:59:54;;;;;;;4.37;1.70;;;;;;;;;;5023940;28;20411;-58
2023/09/25 14:02:19;;;;;;;3.67;1.60;;;;;;;;;;5025381;28;20488;-58
2023/09/25 14:04:44;;;;;;;3.20;1.60;;;;;;;;;;5033377;28;20477;-58
2023/09/25 14:07:09;;;;;;;4.97;1.92;;;;;;;;;;5032405;28;20463;-58
2023/09/25 14:09:35;;;;;;;3.58;1.60;;;;;;;;;;5032027;28;20460;-58
2023/09/25 14:12:00;;;;;;;3.85;1.50;;;;;;;;;;5032464;28;20791;-57
2023/09/25 14:14:39;;;;;;;5.10;1.50;;;;;;;;;;5033613;28;21283;-57
2023/09/25 14:17:04;;;;;;;4.10;1.52;;;;;;;;;;5030793;28;20420;-57
2023/09/25 14:19:29;;;;;;;4.03;1.80;;;;;;;;;;5023000;28;20399;-58
2023/09/25 14:21:54;;;;;;;4.67;1.63;;;;;;;;;;5024442;28;20440;-58
2023/09/25 14:24:20;;;;;;;3.85;1.60;;;;;;;;;;5024128;28;20397;-58
2023/09/25 14:26:45;;;;;;;3.50;1.83;;;;;;;;;;5029346;28;20426;-57
2023/09/25 14:29:11;;;;;;;4.25;1.63;;;;;;;;;;5031430;28;20422;-58
2023/09/25 14:31:36;;;;;;;5.93;1.80;;;;;;;;;;5032955;28;20411;-58
2023/09/25 14:34:01;;;;;;;4.43;1.70;;;;;;;;;;5031169;28;20410;-58